createdAt,value
2019-01-14T00:02:12.523Z,4.50
2019-01-14T00:04:55.634Z,4.03
2019-01-14T00:07:37.288Z,4.20
2019-01-14T00:10:21.855Z,3.80
2019-01-14T00:13:03.886Z,3.60
2019-01-14T00:15:46.807Z,4.23
2019-01-14T00:18:28.241Z,4.90
2019-01-14T00:21:09.942Z,3.97
2019-01-14T00:23:52.166Z,3.47
2019-01-14T00:26:34.171Z,3.93
2019-01-14T00:29:15.525Z,3.40
2019-01-14T00:31:57.051Z,3.80
2019-01-14T00:37:24.723Z,3.87
2019-01-14T00:40:06.001Z,4.03
2019-01-14T00:42:45.975Z,3.33
2019-01-14T00:45:27.666Z,3.93
2019-01-14T00:48:08.719Z,3.87
2019-01-14T00:50:51.982Z,3.77
2019-01-14T00:53:33.841Z,3.53
2019-01-14T00:56:15.248Z,3.33
2019-01-14T00:58:56.699Z,3.97
2019-01-14T01:01:38.436Z,4.20
2019-01-14T01:04:19.689Z,3.80
2019-01-14T01:09:45.277Z,4.03
2019-01-14T01:12:26.831Z,4.13
2019-01-14T01:15:09.390Z,3.97
2019-01-14T01:17:50.654Z,3.83
2019-01-14T01:20:31.979Z,3.73
2019-01-14T01:23:13.350Z,3.50
2019-01-14T01:25:54.242Z,3.77
2019-01-14T01:28:35.707Z,4.20
2019-01-14T01:31:18.229Z,3.97
2019-01-14T01:33:59.746Z,4.30
2019-01-14T01:36:41.361Z,4.57
2019-01-14T01:42:01.142Z,4.23
2019-01-14T01:44:43.016Z,4.03
2019-01-14T01:47:24.511Z,4.40
2019-01-14T01:50:05.655Z,4.33
2019-01-14T01:52:35.125Z,3.37
2019-01-14T01:55:23.670Z,4.70
2019-01-14T01:58:12.181Z,3.83
2019-01-14T02:00:55.045Z,4.87
2019-01-14T02:06:20.387Z,4.17
2019-01-14T02:08:49.871Z,4.13
2019-01-14T02:11:38.645Z,4.27
2019-01-14T02:14:27.730Z,3.90
2019-01-14T02:17:09.821Z,3.77
2019-01-14T02:19:51.312Z,3.40
2019-01-14T02:22:32.642Z,4.00
2019-01-14T02:25:14.020Z,4.00
2019-01-14T02:30:39.071Z,4.27
2019-01-14T02:33:20.375Z,4.07
2019-01-14T02:35:49.982Z,3.63
2019-01-14T02:38:38.779Z,4.00
2019-01-14T02:41:21.775Z,4.17
2019-01-14T02:44:02.775Z,3.60
2019-01-14T02:46:43.786Z,3.70
2019-01-14T02:52:09.594Z,3.80
2019-01-14T02:54:52.840Z,4.23
2019-01-14T02:57:34.511Z,3.50
2019-01-14T03:00:16.522Z,3.60
2019-01-14T03:02:57.658Z,4.00
2019-01-14T03:08:28.198Z,4.33
2019-01-14T03:11:09.511Z,3.93
2019-01-14T03:13:50.759Z,4.37
2019-01-14T03:16:32.337Z,4.30
2019-01-14T03:19:13.269Z,3.90
2019-01-14T03:21:55.031Z,3.80
2019-01-14T03:24:36.374Z,4.40
2019-01-14T03:27:17.985Z,4.30
2019-01-14T03:29:59.935Z,3.57
2019-01-14T03:32:41.416Z,4.30
2019-01-14T03:35:22.298Z,4.27
2019-01-14T03:40:47.302Z,4.03
2019-01-14T03:43:29.023Z,3.73
2019-01-14T03:46:13.369Z,3.73
2019-01-14T03:48:55.521Z,4.17
2019-01-14T03:51:38.063Z,4.27
2019-01-14T03:54:19.334Z,3.67
2019-01-14T03:57:01.013Z,3.63
2019-01-14T03:59:41.998Z,3.67
2019-01-14T04:02:23.775Z,3.63
2019-01-14T04:05:04.642Z,3.80
2019-01-14T04:07:45.342Z,4.07
2019-01-14T04:10:26.513Z,3.67
2019-01-14T04:13:07.176Z,3.43
2019-01-14T04:15:36.972Z,3.23
2019-01-14T04:27:31.450Z,3.23
2019-01-14T04:32:39.634Z,4.27
2019-01-14T04:38:35.147Z,3.77
2019-01-14T04:41:16.626Z,4.23
2019-01-14T04:43:57.389Z,3.37
2019-01-14T04:46:39.089Z,3.90
2019-01-14T04:49:20.622Z,4.37
2019-01-14T04:52:01.583Z,3.60
2019-01-14T04:54:43.234Z,3.67
2019-01-14T04:57:12.708Z,3.40
2019-01-14T05:00:01.225Z,4.67
2019-01-14T05:02:42.038Z,4.23
2019-01-14T05:05:24.147Z,4.23
2019-01-14T05:08:05.575Z,5.23
2019-01-14T05:13:31.875Z,3.93
2019-01-14T05:18:57.442Z,4.00
2019-01-14T05:21:38.942Z,4.40
2019-01-14T05:24:20.576Z,4.03
2019-01-14T05:27:02.025Z,3.73
2019-01-14T05:29:46.335Z,3.90
2019-01-14T05:38:05.249Z,3.70
2019-01-14T05:40:46.523Z,3.23
2019-01-14T05:43:28.218Z,4.37
2019-01-14T05:48:58.088Z,3.90
2019-01-14T05:51:39.484Z,3.63
2019-01-14T05:54:21.413Z,3.87
2019-01-14T05:56:50.882Z,3.93
2019-01-14T05:59:39.434Z,3.43
2019-01-14T06:02:24.209Z,4.13
2019-01-14T06:05:07.966Z,4.20
2019-01-14T06:07:49.334Z,3.27
2019-01-14T06:10:33.346Z,4.60
2019-01-14T06:13:14.453Z,3.80
2019-01-14T06:15:55.611Z,4.37
2019-01-14T06:18:36.402Z,3.23
2019-01-14T06:21:17.930Z,4.40
2019-01-14T06:23:58.716Z,3.90
2019-01-14T06:26:40.823Z,3.63
2019-01-14T06:29:22.422Z,4.60
2019-01-14T06:32:06.722Z,4.20
2019-01-14T06:34:47.996Z,4.53
2019-01-14T06:40:15.421Z,4.47
2019-01-14T06:42:56.501Z,4.80
2019-01-14T06:45:37.460Z,5.00
2019-01-14T06:48:19.133Z,3.73
2019-01-14T06:50:59.945Z,4.20
2019-01-14T06:53:40.918Z,4.40
2019-01-14T06:56:24.919Z,4.30
2019-01-14T06:59:07.102Z,4.83
2019-01-14T07:01:51.487Z,4.73
2019-01-14T07:04:35.955Z,5.03
2019-01-14T07:10:04.566Z,4.30
2019-01-14T07:15:35.386Z,4.50
2019-01-14T07:18:18.333Z,3.80
2019-01-14T07:21:00.362Z,4.40
2019-01-14T07:23:42.446Z,4.27
2019-01-14T07:26:23.993Z,4.33
2019-01-14T07:29:06.469Z,5.07
2019-01-14T07:31:48.307Z,4.57
2019-01-14T07:37:13.514Z,4.60
2019-01-14T07:39:54.898Z,5.13
2019-01-14T07:42:24.682Z,4.40
2019-01-14T07:45:14.045Z,4.20
2019-01-14T07:48:02.580Z,4.90
2019-01-14T07:53:32.216Z,4.30
2019-01-14T07:56:13.521Z,4.20
2019-01-14T07:58:55.376Z,3.90
2019-01-14T08:04:20.725Z,4.73
2019-01-14T08:07:02.371Z,3.63
2019-01-14T08:12:32.838Z,3.33
2019-01-14T08:15:15.795Z,3.50
2019-01-14T08:17:57.262Z,3.70
2019-01-14T08:20:41.588Z,3.50
2019-01-14T08:23:25.302Z,3.40
2019-01-14T08:26:07.036Z,4.73
2019-01-14T08:28:48.152Z,3.53
2019-01-14T08:31:29.942Z,3.43
2019-01-14T08:34:11.203Z,3.47
2019-01-14T08:36:52.576Z,4.33
2019-01-14T08:39:33.658Z,3.63
2019-01-14T08:42:15.113Z,3.77
2019-01-14T08:44:57.196Z,3.73
2019-01-14T08:47:38.149Z,3.80
2019-01-14T08:50:19.609Z,3.73
2019-01-14T08:53:00.481Z,3.17
2019-01-14T08:55:42.063Z,4.17
2019-01-14T08:58:23.492Z,3.50
2019-01-14T09:01:04.741Z,4.03
2019-01-14T09:03:45.909Z,3.57
2019-01-14T09:09:29.596Z,3.90
2019-01-14T09:12:12.212Z,4.53
2019-01-14T09:14:53.453Z,4.00
2019-01-14T09:17:34.536Z,4.07
2019-01-14T09:20:15.199Z,4.73
2019-01-14T09:22:55.082Z,4.03
2019-01-14T09:25:37.234Z,4.50
2019-01-14T09:28:25.801Z,4.23
2019-01-14T09:31:06.575Z,5.17
2019-01-14T09:33:48.380Z,3.93
2019-01-14T09:36:30.033Z,3.70
2019-01-14T09:39:11.109Z,4.43
2019-01-14T09:41:52.813Z,4.77
2019-01-14T09:44:34.364Z,3.70
2019-01-14T09:47:15.654Z,4.20
2019-01-14T09:49:57.452Z,3.60
2019-01-14T09:52:41.456Z,4.37
2019-01-14T09:55:13.213Z,4.00
2019-01-14T10:00:37.531Z,4.50
2019-01-14T10:03:18.802Z,3.60
2019-01-14T10:06:00.374Z,4.33
2019-01-14T10:08:43.190Z,4.13
2019-01-14T10:11:24.623Z,3.67
2019-01-14T10:14:05.494Z,3.40
2019-01-14T10:16:46.758Z,3.63
2019-01-14T10:19:29.213Z,3.70
2019-01-14T10:22:10.666Z,3.90
2019-01-14T10:24:51.705Z,2.93
2019-01-14T10:27:33.055Z,3.93
2019-01-14T10:30:14.390Z,3.00
2019-01-14T10:32:56.152Z,3.87
2019-01-14T10:35:37.152Z,3.23
2019-01-14T10:38:18.111Z,4.23
2019-01-14T10:40:59.010Z,3.10
2019-01-14T10:43:40.693Z,2.90
2019-01-14T10:46:22.176Z,3.03
2019-01-14T10:49:06.856Z,3.10
2019-01-14T10:51:47.754Z,3.33
2019-01-14T10:54:28.453Z,3.20
2019-01-14T10:57:09.193Z,3.43
2019-01-14T10:59:50.150Z,3.57
2019-01-14T11:02:32.056Z,3.50
2019-01-14T11:05:13.679Z,3.07
2019-01-14T11:07:55.745Z,3.40
2019-01-14T11:10:36.775Z,3.90
2019-01-14T11:13:18.158Z,3.40
2019-01-14T11:15:59.006Z,3.50
2019-01-14T11:18:41.957Z,3.67
2019-01-14T11:21:14.473Z,3.23
2019-01-14T11:24:02.323Z,3.13
2019-01-14T11:26:43.967Z,3.37
2019-01-14T11:29:25.381Z,3.50
2019-01-14T11:31:55.147Z,2.73
2019-01-14T11:37:51.847Z,3.50
2019-01-14T11:40:32.827Z,3.27
2019-01-14T11:43:14.606Z,3.33
2019-01-14T11:45:57.058Z,3.20
2019-01-14T11:48:38.576Z,3.03
2019-01-14T11:51:19.901Z,2.73
2019-01-14T11:54:00.790Z,2.70
2019-01-14T11:56:41.886Z,2.60
2019-01-14T11:59:23.446Z,2.53
2019-01-14T12:02:04.836Z,3.13
2019-01-14T12:04:46.433Z,3.13
2019-01-14T12:07:27.081Z,3.10
2019-01-14T12:10:08.615Z,3.67
2019-01-14T12:15:32.318Z,3.43
2019-01-14T12:18:13.555Z,3.10
2019-01-14T12:20:55.793Z,3.00
2019-01-14T12:23:35.681Z,3.00
2019-01-14T12:26:17.376Z,2.83
2019-01-14T12:28:58.725Z,2.80
2019-01-14T12:31:39.598Z,2.40
2019-01-14T12:34:21.128Z,3.07
2019-01-14T12:37:02.650Z,3.07
2019-01-14T12:39:44.256Z,2.37
2019-01-14T12:42:25.875Z,2.43
2019-01-14T12:45:07.597Z,2.50
2019-01-14T12:47:49.308Z,2.80
2019-01-14T12:50:30.824Z,2.57
2019-01-14T12:55:54.885Z,2.63
2019-01-14T12:58:36.430Z,3.23
2019-01-14T13:01:18.025Z,2.73
2019-01-14T13:03:59.727Z,2.70
2019-01-14T13:06:41.177Z,2.43
2019-01-14T13:09:26.822Z,2.50
2019-01-14T13:12:10.884Z,3.87
2019-01-14T13:14:52.467Z,3.00
2019-01-14T13:17:33.738Z,2.97
2019-01-14T13:20:15.362Z,2.93
2019-01-14T13:22:57.482Z,2.70
2019-01-14T13:25:38.678Z,2.60
2019-01-14T13:28:19.882Z,2.60
2019-01-14T13:31:01.439Z,2.77
2019-01-14T13:33:42.535Z,3.20
2019-01-14T13:36:23.758Z,2.93
2019-01-14T13:39:07.828Z,2.30
2019-01-14T13:41:49.062Z,2.63
2019-01-14T13:44:30.620Z,2.93
2019-01-14T13:47:12.383Z,2.53
2019-01-14T13:49:54.614Z,3.00
2019-01-14T13:52:34.818Z,3.00
2019-01-14T13:57:59.761Z,2.57
2019-01-14T14:00:38.590Z,3.23
2019-01-14T14:03:19.562Z,3.17
2019-01-14T14:06:01.403Z,2.60
2019-01-14T14:08:43.871Z,2.60
2019-01-14T14:11:25.743Z,3.27
2019-01-14T14:14:06.885Z,2.70
2019-01-14T14:16:47.955Z,3.00
2019-01-14T14:19:28.655Z,4.20
2019-01-14T14:22:11.820Z,3.33
2019-01-14T14:24:41.271Z,3.00
2019-01-14T14:27:30.080Z,3.10
2019-01-14T14:30:20.094Z,3.23
2019-01-14T14:33:01.826Z,3.40
2019-01-14T14:38:26.637Z,3.20
2019-01-14T14:43:50.087Z,2.47
2019-01-14T14:46:31.732Z,2.23
2019-01-14T14:49:13.093Z,1.60
2019-01-14T14:51:54.172Z,1.73
2019-01-14T14:54:35.842Z,1.63
2019-01-14T14:57:17.525Z,1.50
2019-01-14T14:59:59.331Z,3.87
2019-01-14T15:02:40.615Z,1.50
2019-01-14T15:05:21.937Z,1.73
2019-01-14T15:08:02.975Z,2.10
2019-01-14T15:10:44.451Z,2.47
2019-01-14T15:13:26.237Z,1.80
2019-01-14T15:16:07.298Z,2.07
2019-01-14T15:21:37.422Z,2.07
2019-01-14T15:27:03.910Z,2.50
2019-01-14T15:29:45.129Z,1.87
2019-01-14T15:32:26.473Z,2.40
2019-01-14T15:35:08.297Z,2.23
2019-01-14T15:37:50.099Z,1.90
2019-01-14T15:40:31.669Z,2.17
2019-01-14T15:43:13.072Z,2.00
2019-01-14T15:45:54.365Z,3.10
2019-01-14T15:48:35.994Z,2.50
2019-01-14T15:51:44.886Z,2.73
2019-01-14T16:00:55.918Z,3.40
2019-01-14T16:03:37.339Z,3.33
2019-01-14T16:06:18.941Z,3.30
2019-01-14T16:09:00.544Z,3.37
2019-01-14T16:11:41.962Z,3.77
2019-01-14T16:14:23.586Z,3.43
2019-01-14T16:17:05.271Z,3.73
2019-01-14T16:19:46.091Z,4.07
2019-01-14T16:22:27.661Z,3.00
2019-01-14T16:25:09.006Z,2.70
2019-01-14T16:27:51.739Z,2.60
2019-01-14T16:30:33.293Z,3.30
2019-01-14T16:33:14.857Z,3.27
2019-01-14T16:35:57.321Z,3.20
2019-01-14T16:38:38.814Z,3.37
2019-01-14T16:41:19.558Z,3.87
2019-01-14T16:44:01.181Z,4.07
2019-01-14T16:46:42.738Z,3.00
2019-01-14T16:49:24.359Z,2.33
2019-01-14T16:52:07.045Z,2.30
2019-01-14T16:54:48.838Z,2.23
2019-01-14T16:57:30.102Z,2.10
2019-01-14T17:00:12.519Z,2.37
2019-01-14T17:02:42.319Z,2.30
2019-01-14T17:05:30.875Z,2.43
2019-01-14T17:08:19.786Z,2.87
2019-01-14T17:11:01.082Z,2.93
2019-01-14T17:13:45.633Z,2.67
2019-01-14T17:16:27.507Z,2.30
2019-01-14T17:19:08.983Z,3.13
2019-01-14T17:21:50.506Z,2.30
2019-01-14T17:24:32.023Z,4.00
2019-01-14T17:27:13.110Z,2.87
2019-01-14T17:29:53.970Z,3.60
2019-01-14T17:32:35.172Z,3.30
2019-01-14T17:35:17.533Z,3.80
2019-01-14T17:37:59.452Z,3.70
2019-01-14T17:43:25.830Z,4.43
2019-01-14T17:46:07.096Z,4.07
2019-01-14T17:54:49.260Z,4.57
2019-01-14T17:57:30.546Z,4.17
2019-01-14T18:00:12.363Z,4.30
2019-01-14T18:02:41.854Z,4.57
2019-01-14T18:05:30.676Z,4.23
2019-01-14T18:08:19.241Z,4.00
2019-01-14T18:11:01.883Z,3.67
2019-01-14T18:13:43.902Z,3.90
2019-01-14T18:16:25.185Z,4.50
2019-01-14T18:19:06.571Z,3.40
2019-01-14T18:21:47.973Z,3.40
2019-01-14T18:24:29.043Z,3.43
2019-01-14T18:27:09.822Z,2.93
2019-01-14T18:29:52.987Z,3.07
2019-01-14T18:32:34.703Z,3.53
2019-01-14T18:35:17.115Z,3.20
2019-01-14T18:37:57.991Z,3.30
2019-01-14T18:40:46.880Z,3.37
2019-01-14T18:43:22.866Z,2.83
2019-01-14T18:46:04.187Z,4.17
2019-01-14T18:48:45.503Z,3.80
2019-01-14T18:51:26.627Z,3.80
2019-01-14T18:54:07.981Z,3.77
2019-01-14T18:56:49.195Z,4.07
2019-01-14T18:59:30.833Z,4.37
2019-01-14T19:02:12.312Z,4.80
2019-01-14T19:04:56.036Z,5.57
2019-01-14T19:07:25.504Z,8.93
2019-01-14T19:10:14.372Z,7.40
2019-01-14T19:13:02.938Z,7.60
2019-01-14T19:15:44.303Z,7.97
2019-01-14T19:18:25.324Z,8.07
2019-01-14T19:21:06.333Z,8.70
2019-01-14T19:23:47.103Z,9.00
2019-01-14T19:26:28.903Z,9.50
2019-01-14T19:29:09.927Z,8.77
2019-01-14T19:31:50.582Z,9.67
2019-01-14T19:34:32.288Z,8.70
2019-01-14T19:37:13.576Z,8.80
2019-01-14T19:39:54.916Z,9.67
2019-01-14T19:42:34.758Z,11.27
2019-01-14T19:45:15.863Z,10.40
2019-01-14T19:47:57.455Z,10.57
2019-01-14T19:50:38.408Z,10.37
2019-01-14T19:53:20.303Z,9.57
2019-01-14T19:56:01.811Z,9.67
2019-01-14T19:58:43.233Z,9.40
2019-01-14T20:01:24.855Z,9.23
2019-01-14T20:04:07.808Z,8.80
2019-01-14T20:06:49.635Z,10.23
2019-01-14T20:09:30.770Z,10.17
2019-01-14T20:12:11.470Z,10.17
2019-01-14T20:14:52.661Z,9.00
2019-01-14T20:17:33.476Z,8.70
2019-01-14T20:20:14.123Z,8.27
2019-01-14T20:22:55.921Z,9.83
2019-01-14T20:25:37.218Z,10.47
2019-01-14T20:28:18.521Z,10.47
2019-01-14T20:31:00.294Z,11.23
2019-01-14T20:33:30.446Z,10.23
2019-01-14T20:36:19.553Z,11.20
2019-01-14T20:39:00.414Z,10.17
2019-01-14T20:41:41.156Z,10.23
2019-01-14T20:44:22.861Z,11.57
2019-01-14T20:47:03.850Z,11.63
2019-01-14T20:52:28.698Z,9.97
2019-01-14T20:55:10.141Z,12.43
2019-01-14T20:57:51.101Z,12.63
2019-01-14T21:00:31.934Z,11.70
2019-01-14T21:03:13.620Z,12.40
2019-01-14T21:05:54.584Z,9.73
2019-01-14T21:08:35.354Z,11.03
2019-01-14T21:11:23.663Z,11.57
2019-01-14T21:14:00.384Z,12.97
2019-01-14T21:19:20.246Z,12.33
2019-01-14T21:22:02.871Z,10.93
2019-01-14T21:24:44.243Z,11.17
2019-01-14T21:27:25.741Z,12.90
2019-01-14T21:29:55.482Z,13.67
2019-01-14T21:32:43.999Z,12.93
2019-01-14T21:35:24.827Z,14.20
2019-01-14T21:41:18.319Z,13.40
2019-01-14T21:43:47.799Z,12.70
2019-01-14T21:46:36.362Z,14.20
2019-01-14T21:49:24.866Z,13.03
2019-01-14T21:52:06.446Z,13.73
2019-01-14T21:54:48.159Z,12.70
2019-01-14T21:57:17.658Z,13.43
2019-01-14T22:03:09.177Z,12.47
2019-01-14T22:05:50.292Z,13.23
2019-01-14T22:08:31.857Z,14.50
2019-01-14T22:11:12.599Z,14.70
2019-01-14T22:13:53.414Z,13.87
2019-01-14T22:16:33.144Z,12.87
2019-01-14T22:19:14.611Z,14.53
2019-01-14T22:21:44.992Z,14.00
2019-01-14T22:24:33.524Z,15.07
2019-01-14T22:27:22.035Z,13.70
2019-01-14T22:30:02.734Z,13.47
2019-01-14T22:32:44.325Z,12.40
2019-01-14T22:35:25.460Z,12.93
2019-01-14T22:38:06.834Z,12.63
2019-01-14T22:40:48.519Z,14.03
2019-01-14T22:43:29.332Z,12.80
2019-01-14T22:46:10.599Z,12.87
2019-01-14T22:48:51.306Z,11.97
2019-01-14T22:51:32.574Z,12.70
2019-01-14T22:54:13.978Z,13.63
2019-01-14T23:03:09.770Z,12.50
2019-01-14T23:05:50.982Z,12.27
2019-01-14T23:08:20.482Z,12.00
2019-01-14T23:11:09.307Z,12.77
2019-01-14T23:13:50.115Z,12.73
2019-01-14T23:16:31.698Z,12.20
2019-01-14T23:19:12.677Z,13.17
2019-01-14T23:21:54.133Z,14.33
2019-01-14T23:24:35.427Z,13.33
2019-01-14T23:27:16.271Z,12.87
2019-01-14T23:29:58.240Z,13.70
2019-01-14T23:32:39.089Z,14.50
2019-01-14T23:35:19.854Z,14.40
2019-01-14T23:38:01.404Z,12.90
2019-01-14T23:40:43.214Z,13.80
2019-01-14T23:43:24.039Z,14.93
2019-01-14T23:46:04.732Z,13.83
2019-01-14T23:48:46.373Z,14.50
2019-01-14T23:51:27.919Z,14.77
2019-01-14T23:54:09.375Z,14.70
2019-01-14T23:56:50.902Z,16.07
2019-01-14T23:59:20.413Z,14.83
